Terminal Aerodrome Forecast
Issued by NWS

Home | Current Version | Previous Version | Text Only | Print | Product List | Glossary On
Versions: 1 2 3 4 5 6 7 8 9 10 11 12 13 14 15 16 17 18 19
000
FTUS43 KGRB 290636 AAA
TAFCWA
TAF AMD
KCWA 290636Z 2907/3006 VRB03KT P6SM SKC
      TEMPO 2907/2910 1/2SM FG BKN002
     FM291000 14003KT 6SM BR BKN150
     FM291500 18004KT P6SM BKN020
     FM291700 18009KT P6SM SCT030 PROB30 2918/2922 3SM -TSRA
      BKN020CB
     FM300100 VRB03KT P6SM BKN250
      AMD LTD TO CLD VIS AND WIND TIL 291100=

USA.gov is the U.S. government's official web portal to all federal, state and local government web resources and services.